Time;durP1;ratioP1;P1;durP2;ratioP2;P2;SDS_P1;SDS_P2;PMS_P1;PMS_P2;Temp;Humidity;BMP_temperature;BMP_pressure;BME280_temperature;BME280_humidity;BME280_pressure;Samples;Min_cycle;Max_cycle;Signal;HPM_P1;HPM_P2
2023/12/21 00:02:20;;;;;;;20.08;3.67;;;;;;;;;;4905723;29;20052;-72
2023/12/21 00:04:46;;;;;;;18.33;3.05;;;;;;;;;;4936791;29;20044;-71
2023/12/21 00:07:12;;;;;;;19.08;3.20;;;;;;;;;;4935035;29;20090;-71
2023/12/21 00:09:38;;;;;;;20.23;3.10;;;;;;;;;;4935111;29;20051;-71
2023/12/21 00:12:05;;;;;;;20.73;4.32;;;;;;;;;;4936980;29;20047;-71
2023/12/21 00:14:31;;;;;;;23.75;3.83;;;;;;;;;;4920508;29;20044;-72
2023/12/21 00:16:57;;;;;;;22.80;3.10;;;;;;;;;;4921117;29;20047;-72
2023/12/21 00:19:23;;;;;;;19.50;3.20;;;;;;;;;;4935908;29;20063;-72
2023/12/21 00:21:50;;;;;;;16.10;3.30;;;;;;;;;;4936573;29;20398;-72
2023/12/21 00:24:16;;;;;;;20.75;3.80;;;;;;;;;;4924860;29;20040;-71
2023/12/21 00:26:42;;;;;;;18.90;3.58;;;;;;;;;;4917618;29;20048;-71
2023/12/21 00:29:09;;;;;;;15.60;3.42;;;;;;;;;;4927816;29;20044;-72
2023/12/21 00:31:35;;;;;;;18.25;2.90;;;;;;;;;;4905142;29;20421;-72
2023/12/21 00:34:01;;;;;;;19.30;3.25;;;;;;;;;;4936045;29;20048;-72
2023/12/21 00:36:27;;;;;;;19.77;3.70;;;;;;;;;;4935862;29;20464;-71
2023/12/21 00:38:54;;;;;;;16.65;3.08;;;;;;;;;;4928672;29;20701;-72
2023/12/21 00:41:20;;;;;;;16.08;3.45;;;;;;;;;;4919794;29;20048;-71
2023/12/21 00:43:46;;;;;;;27.65;3.40;;;;;;;;;;4907117;29;20074;-72
2023/12/21 00:46:12;;;;;;;14.98;3.22;;;;;;;;;;4936183;29;20047;-72
2023/12/21 00:48:38;;;;;;;18.23;3.08;;;;;;;;;;4930584;29;20043;-72
2023/12/21 00:51:04;;;;;;;20.50;3.28;;;;;;;;;;4936392;29;20039;-72
2023/12/21 00:53:30;;;;;;;15.95;3.22;;;;;;;;;;4903673;29;20253;-72
2023/12/21 00:55:56;;;;;;;19.40;3.65;;;;;;;;;;4934941;29;20055;-72
2023/12/21 00:58:22;;;;;;;18.48;2.90;;;;;;;;;;4935557;29;20468;-72
2023/12/21 01:00:48;;;;;;;18.52;3.55;;;;;;;;;;4935537;29;20039;-72
2023/12/21 01:03:14;;;;;;;17.38;2.63;;;;;;;;;;4934616;29;20043;-79
2023/12/21 01:05:41;;;;;;;17.05;3.17;;;;;;;;;;4904178;29;20444;-79
2023/12/21 01:08:07;;;;;;;17.77;3.40;;;;;;;;;;4929760;29;20433;-81
2023/12/21 01:10:33;;;;;;;14.52;3.08;;;;;;;;;;4922875;29;20115;-82
2023/12/21 01:12:59;;;;;;;13.95;3.88;;;;;;;;;;4906013;29;20127;-81
2023/12/21 01:15:26;;;;;;;17.10;3.03;;;;;;;;;;4902462;29;20441;-81
2023/12/21 01:17:52;;;;;;;20.08;3.17;;;;;;;;;;4927599;29;20469;-79
2023/12/21 01:20:18;;;;;;;16.73;3.33;;;;;;;;;;4929873;29;20036;-81
2023/12/21 01:22:44;;;;;;;24.08;3.90;;;;;;;;;;4900845;29;20048;-81
2023/12/21 01:25:10;;;;;;;12.63;2.80;;;;;;;;;;4922909;29;20067;-80
2023/12/21 01:27:36;;;;;;;18.88;2.78;;;;;;;;;;4939907;29;20437;-80
2023/12/21 01:30:02;;;;;;;17.23;3.53;;;;;;;;;;4941051;29;20036;-80
2023/12/21 01:32:28;;;;;;;18.65;3.28;;;;;;;;;;4917635;29;20072;-81
2023/12/21 01:34:55;;;;;;;16.65;2.88;;;;;;;;;;4886818;29;20044;-81
2023/12/21 01:37:21;;;;;;;18.63;3.20;;;;;;;;;;4910191;29;20043;-81
2023/12/21 01:39:47;;;;;;;24.17;2.65;;;;;;;;;;4935336;29;20103;-81
2023/12/21 01:42:13;;;;;;;15.98;2.83;;;;;;;;;;4935610;29;20044;-82
2023/12/21 01:44:39;;;;;;;14.68;3.47;;;;;;;;;;4929953;29;20044;-80
2023/12/21 01:47:05;;;;;;;13.82;2.80;;;;;;;;;;4919288;29;20135;-80
2023/12/21 01:49:32;;;;;;;20.40;3.58;;;;;;;;;;4936054;29;20046;-81
2023/12/21 01:51:58;;;;;;;17.83;3.03;;;;;;;;;;4934941;29;20408;-81
2023/12/21 01:54:24;;;;;;;20.05;2.92;;;;;;;;;;4935219;29;20439;-81
2023/12/21 01:56:50;;;;;;;22.50;3.80;;;;;;;;;;4915925;29;20139;-81
2023/12/21 01:59:16;;;;;;;13.27;3.00;;;;;;;;;;4911541;29;20040;-81
2023/12/21 02:01:42;;;;;;;16.35;3.45;;;;;;;;;;4916214;29;20047;-74
2023/12/21 02:04:09;;;;;;;15.45;3.22;;;;;;;;;;4932284;29;20456;-74
2023/12/21 02:06:35;;;;;;;17.15;2.90;;;;;;;;;;4933865;29;20043;-74
2023/12/21 02:09:01;;;;;;;17.60;2.95;;;;;;;;;;4917646;29;20171;-74
2023/12/21 02:11:27;;;;;;;17.77;3.50;;;;;;;;;;4916105;29;20052;-71
2023/12/21 02:13:53;;;;;;;20.17;2.70;;;;;;;;;;4899731;29;20425;-74
2023/12/21 02:16:42;;;;;;;18.60;3.33;;;;;;;;;;4930726;29;20066;-74
2023/12/21 02:19:10;;;;;;;21.92;3.20;;;;;;;;;;4911928;29;20055;-74
2023/12/21 02:21:36;;;;;;;19.95;3.03;;;;;;;;;;4915855;29;20051;-74
2023/12/21 02:24:04;;;;;;;18.25;3.08;;;;;;;;;;4917811;29;20044;-74
2023/12/21 02:26:30;;;;;;;15.65;3.38;;;;;;;;;;4915209;29;20155;-74
2023/12/21 02:28:56;;;;;;;11.73;2.53;;;;;;;;;;4899876;29;20040;-74
2023/12/21 02:31:22;;;;;;;13.77;3.05;;;;;;;;;;4901255;29;20052;-74
2023/12/21 02:33:48;;;;;;;11.45;2.85;;;;;;;;;;4916628;29;20050;-71
2023/12/21 02:36:14;;;;;;;20.58;3.17;;;;;;;;;;4905858;29;20127;-74
2023/12/21 02:38:40;;;;;;;20.92;5.13;;;;;;;;;;4912952;29;20455;-74
2023/12/21 02:41:06;;;;;;;13.57;3.22;;;;;;;;;;4915283;29;20047;-74
2023/12/21 02:43:32;;;;;;;16.02;3.25;;;;;;;;;;4905127;29;20127;-71
2023/12/21 02:45:58;;;;;;;22.65;3.58;;;;;;;;;;4901180;29;20459;-71
2023/12/21 02:48:24;;;;;;;10.27;3.03;;;;;;;;;;4902042;29;20505;-71
2023/12/21 02:50:50;;;;;;;26.90;3.97;;;;;;;;;;4915370;29;20051;-71
2023/12/21 02:53:16;;;;;;;17.33;3.33;;;;;;;;;;4910241;29;20078;-71
2023/12/21 02:55:43;;;;;;;15.75;3.10;;;;;;;;;;4918435;29;20035;-74
2023/12/21 02:58:09;;;;;;;17.73;3.20;;;;;;;;;;4920659;29;20048;-74
2023/12/21 03:00:35;;;;;;;15.52;3.70;;;;;;;;;;4920081;29;20036;-74
2023/12/21 03:03:01;;;;;;;16.38;2.90;;;;;;;;;;4907191;29;20043;-74
2023/12/21 03:05:27;;;;;;;17.10;2.92;;;;;;;;;;4936641;29;20062;-74
2023/12/21 03:07:54;;;;;;;12.65;3.08;;;;;;;;;;4935859;29;20042;-74
2023/12/21 03:10:20;;;;;;;19.95;3.33;;;;;;;;;;4920487;29;20156;-74
2023/12/21 03:12:46;;;;;;;18.67;2.97;;;;;;;;;;4936369;29;20580;-72
2023/12/21 03:15:12;;;;;;;11.05;2.80;;;;;;;;;;4903160;29;20040;-71
2023/12/21 03:17:38;;;;;;;19.40;3.13;;;;;;;;;;4919027;29;20103;-72
2023/12/21 03:20:07;;;;;;;14.23;2.95;;;;;;;;;;4921351;29;20047;-71
2023/12/21 03:22:33;;;;;;;12.48;2.70;;;;;;;;;;4918953;29;20044;-71
2023/12/21 03:24:59;;;;;;;23.90;3.58;;;;;;;;;;4935213;29;20074;-74
2023/12/21 03:27:25;;;;;;;18.60;2.75;;;;;;;;;;4937708;29;20088;-74
2023/12/21 03:29:52;;;;;;;23.20;3.13;;;;;;;;;;4937261;29;20043;-74
2023/12/21 03:32:18;;;;;;;17.13;3.20;;;;;;;;;;4921946;29;20052;-74
2023/12/21 03:34:44;;;;;;;19.42;3.58;;;;;;;;;;4931105;29;20039;-74
2023/12/21 03:37:10;;;;;;;16.05;3.35;;;;;;;;;;4902807;29;20050;-74
2023/12/21 03:39:36;;;;;;;15.05;2.95;;;;;;;;;;4911474;29;20044;-74
2023/12/21 03:42:02;;;;;;;12.98;2.92;;;;;;;;;;4919448;29;20044;-74
2023/12/21 03:44:28;;;;;;;19.60;3.28;;;;;;;;;;4919822;29;20123;-74
2023/12/21 03:46:54;;;;;;;19.50;2.92;;;;;;;;;;4902654;29;20102;-71
2023/12/21 03:49:20;;;;;;;15.40;2.60;;;;;;;;;;4923556;29;20514;-74
2023/12/21 03:51:46;;;;;;;18.92;4.13;;;;;;;;;;4935678;29;20039;-74
2023/12/21 03:54:13;;;;;;;16.65;2.70;;;;;;;;;;4936811;29;20048;-81
2023/12/21 03:56:39;;;;;;;17.02;3.33;;;;;;;;;;4921597;29;20044;-79
2023/12/21 03:59:05;;;;;;;14.65;2.78;;;;;;;;;;4905417;29;20040;-81
2023/12/21 04:01:32;;;;;;;14.57;2.40;;;;;;;;;;4937328;29;20054;-81
2023/12/21 04:03:58;;;;;;;15.02;3.10;;;;;;;;;;4935670;29;20126;-81
2023/12/21 04:06:24;;;;;;;28.63;3.38;;;;;;;;;;4937209;29;20086;-81
2023/12/21 04:08:53;;;;;;;16.63;3.20;;;;;;;;;;4933594;29;20036;-81
2023/12/21 04:11:19;;;;;;;20.55;3.65;;;;;;;;;;4935618;29;20060;-79
2023/12/21 04:13:47;;;;;;;14.27;3.35;;;;;;;;;;4909977;29;20044;-81
2023/12/21 04:16:13;;;;;;;15.70;2.78;;;;;;;;;;4904152;29;20075;-81
2023/12/21 04:18:39;;;;;;;12.30;2.72;;;;;;;;;;4917881;29;20437;-74
2023/12/21 04:21:08;;;;;;;22.27;3.47;;;;;;;;;;4928627;29;20048;-74
2023/12/21 04:23:34;;;;;;;18.13;3.05;;;;;;;;;;4935117;29;20039;-74
2023/12/21 04:26:00;;;;;;;19.95;3.40;;;;;;;;;;4934629;29;20440;-74
2023/12/21 04:28:27;;;;;;;13.23;2.60;;;;;;;;;;4917659;29;20035;-74
2023/12/21 04:30:53;;;;;;;16.63;3.38;;;;;;;;;;4919189;29;20031;-74
2023/12/21 04:33:20;;;;;;;20.13;4.63;;;;;;;;;;4934977;29;20086;-74
2023/12/21 04:35:46;;;;;;;16.02;2.60;;;;;;;;;;4932842;29;20040;-72
2023/12/21 04:38:14;;;;;;;14.02;2.75;;;;;;;;;;4920454;29;20036;-71
2023/12/21 04:40:40;;;;;;;17.92;3.05;;;;;;;;;;4921416;29;20202;-72
2023/12/21 04:43:09;;;;;;;17.80;2.78;;;;;;;;;;4917512;29;20088;-74
2023/12/21 04:45:35;;;;;;;17.42;3.20;;;;;;;;;;4901909;29;20076;-74
2023/12/21 04:48:01;;;;;;;13.48;2.70;;;;;;;;;;4918360;29;20050;-74
2023/12/21 04:50:28;;;;;;;11.70;2.53;;;;;;;;;;4927322;29;20514;-74
2023/12/21 04:52:54;;;;;;;13.05;2.67;;;;;;;;;;4935850;29;20043;-74
2023/12/21 04:55:20;;;;;;;17.55;3.30;;;;;;;;;;4919899;29;20500;-74
2023/12/21 04:57:47;;;;;;;11.70;3.33;;;;;;;;;;4934911;29;20110;-74
2023/12/21 05:00:13;;;;;;;17.45;3.30;;;;;;;;;;4935586;29;20040;-74
2023/12/21 05:02:39;;;;;;;16.05;3.05;;;;;;;;;;4919829;29;20105;-71
2023/12/21 05:05:06;;;;;;;13.85;2.38;;;;;;;;;;4931719;29;20488;-72
2023/12/21 05:07:32;;;;;;;24.63;3.30;;;;;;;;;;4935046;29;20058;-71
2023/12/21 05:09:59;;;;;;;13.82;2.53;;;;;;;;;;4921347;29;20059;-71
2023/12/21 05:12:26;;;;;;;18.13;2.80;;;;;;;;;;4939080;29;20097;-71
2023/12/21 05:14:53;;;;;;;21.58;3.78;;;;;;;;;;4938884;29;20043;-71
2023/12/21 05:17:20;;;;;;;15.93;3.50;;;;;;;;;;4938595;28;20086;-71
2023/12/21 05:19:46;;;;;;;14.88;2.70;;;;;;;;;;4938561;29;20047;-71
2023/12/21 05:22:12;;;;;;;16.40;3.05;;;;;;;;;;4929184;29;20031;-71
2023/12/21 05:24:41;;;;;;;12.85;3.03;;;;;;;;;;4938839;29;20049;-81
2023/12/21 05:27:07;;;;;;;13.05;2.60;;;;;;;;;;4935445;29;20050;-81
2023/12/21 05:29:33;;;;;;;21.73;3.13;;;;;;;;;;4919821;29;20521;-82
2023/12/21 05:31:59;;;;;;;13.13;2.72;;;;;;;;;;4914902;28;20400;-79
2023/12/21 05:34:25;;;;;;;19.33;2.65;;;;;;;;;;4933562;29;20058;-80
2023/12/21 05:36:52;;;;;;;10.40;2.72;;;;;;;;;;4930273;29;20054;-81
2023/12/21 05:39:19;;;;;;;14.25;3.22;;;;;;;;;;4938247;29;20472;-81
2023/12/21 05:41:45;;;;;;;12.23;2.95;;;;;;;;;;4935472;29;20078;-81
2023/12/21 05:44:11;;;;;;;15.52;2.80;;;;;;;;;;4927692;29;20057;-81
2023/12/21 05:46:39;;;;;;;12.82;3.15;;;;;;;;;;4904090;29;20047;-81
2023/12/21 05:49:05;;;;;;;14.50;2.20;;;;;;;;;;4919505;29;20051;-81
2023/12/21 05:51:31;;;;;;;17.38;3.28;;;;;;;;;;4909608;29;20068;-81
2023/12/21 05:53:57;;;;;;;17.92;3.03;;;;;;;;;;4938420;29;20047;-81
2023/12/21 05:56:23;;;;;;;17.70;3.17;;;;;;;;;;4922213;29;20043;-80
2023/12/21 05:58:49;;;;;;;14.82;2.80;;;;;;;;;;4937072;29;20078;-79
2023/12/21 06:01:15;;;;;;;10.60;2.53;;;;;;;;;;4936854;29;20047;-79
2023/12/21 06:03:41;;;;;;;18.63;3.65;;;;;;;;;;4926079;29;20055;-79
2023/12/21 06:06:08;;;;;;;14.63;3.17;;;;;;;;;;4919273;29;20043;-81
2023/12/21 06:08:34;;;;;;;19.88;2.70;;;;;;;;;;4935201;29;20050;-81
2023/12/21 06:11:00;;;;;;;13.20;2.88;;;;;;;;;;4936062;29;20051;-81
2023/12/21 06:13:28;;;;;;;13.43;3.20;;;;;;;;;;4937283;29;20091;-81
2023/12/21 06:15:54;;;;;;;11.90;2.25;;;;;;;;;;4922738;29;20046;-81
2023/12/21 06:18:20;;;;;;;11.10;2.78;;;;;;;;;;4922267;29;20058;-81
2023/12/21 06:20:47;;;;;;;15.65;3.08;;;;;;;;;;4932909;29;20028;-82
2023/12/21 06:23:13;;;;;;;15.65;4.03;;;;;;;;;;4915728;29;20087;-81
2023/12/21 06:25:39;;;;;;;8.32;2.45;;;;;;;;;;4921129;29;20047;-81
2023/12/21 06:28:05;;;;;;;12.30;3.08;;;;;;;;;;4920035;29;20110;-74
2023/12/21 06:30:31;;;;;;;10.25;2.63;;;;;;;;;;4903696;29;20036;-74
2023/12/21 06:32:57;;;;;;;15.80;2.90;;;;;;;;;;4919797;29;20040;-74
2023/12/21 06:35:23;;;;;;;19.23;3.15;;;;;;;;;;4935936;29;20499;-75
2023/12/21 06:37:49;;;;;;;14.55;2.65;;;;;;;;;;4939672;29;20050;-74
2023/12/21 06:40:15;;;;;;;17.55;3.40;;;;;;;;;;4933195;29;20047;-75
2023/12/21 06:42:41;;;;;;;13.75;2.67;;;;;;;;;;4919601;29;20131;-75
2023/12/21 06:45:07;;;;;;;9.38;2.55;;;;;;;;;;4925557;29;20171;-75
2023/12/21 06:47:34;;;;;;;12.82;3.28;;;;;;;;;;4922658;29;20040;-75
2023/12/21 06:50:00;;;;;;;11.38;2.60;;;;;;;;;;4914409;29;20126;-75
2023/12/21 06:52:26;;;;;;;15.48;3.33;;;;;;;;;;4940108;29;20357;-76
2023/12/21 06:54:52;;;;;;;9.45;2.22;;;;;;;;;;4935205;29;20118;-76
2023/12/21 06:57:18;;;;;;;15.88;3.17;;;;;;;;;;4906764;29;20531;-81
2023/12/21 06:59:44;;;;;;;15.70;3.10;;;;;;;;;;4926749;29;20046;-81
2023/12/21 07:02:10;;;;;;;14.68;3.30;;;;;;;;;;4941276;29;20075;-81
2023/12/21 07:04:36;;;;;;;11.23;3.20;;;;;;;;;;4941127;29;20039;-77
2023/12/21 07:07:02;;;;;;;16.83;3.10;;;;;;;;;;4927081;29;20035;-81
2023/12/21 07:09:28;;;;;;;17.63;3.00;;;;;;;;;;4908702;29;20047;-81
2023/12/21 07:11:55;;;;;;;14.35;3.08;;;;;;;;;;4957081;29;20165;-81
2023/12/21 07:14:21;;;;;;;18.10;3.00;;;;;;;;;;4948606;29;20533;-81
2023/12/21 07:16:48;;;;;;;18.00;3.13;;;;;;;;;;4934753;29;20079;-81
2023/12/21 07:19:14;;;;;;;20.80;3.15;;;;;;;;;;4928667;29;20040;-81
2023/12/21 07:21:40;;;;;;;21.48;3.88;;;;;;;;;;4927662;29;20040;-81
2023/12/21 07:24:06;;;;;;;19.42;3.33;;;;;;;;;;4922014;29;20035;-79
2023/12/21 07:26:32;;;;;;;15.75;3.55;;;;;;;;;;4922285;29;20134;-78
2023/12/21 07:28:58;;;;;;;10.65;2.67;;;;;;;;;;4921497;29;20046;-80
2023/12/21 07:31:24;;;;;;;19.10;3.05;;;;;;;;;;4930465;29;20198;-80
2023/12/21 07:33:51;;;;;;;19.20;3.65;;;;;;;;;;4927697;29;20043;-80
2023/12/21 07:36:17;;;;;;;24.83;3.80;;;;;;;;;;4926834;29;20502;-80
2023/12/21 07:38:43;;;;;;;19.40;3.83;;;;;;;;;;4930819;29;20083;-80
2023/12/21 07:41:10;;;;;;;18.85;4.15;;;;;;;;;;4915948;29;20099;-80
2023/12/21 07:43:37;;;;;;;15.65;3.33;;;;;;;;;;4899211;29;20103;-79
2023/12/21 07:46:03;;;;;;;18.02;3.00;;;;;;;;;;4930674;29;20047;-79
2023/12/21 07:48:29;;;;;;;21.60;3.40;;;;;;;;;;4910124;29;20047;-75
2023/12/21 07:50:55;;;;;;;16.52;3.15;;;;;;;;;;4924435;29;20043;-75
2023/12/21 07:53:21;;;;;;;23.70;3.60;;;;;;;;;;4916582;29;20040;-74
2023/12/21 07:55:47;;;;;;;25.88;3.50;;;;;;;;;;4929507;29;20097;-75
2023/12/21 07:58:14;;;;;;;18.35;2.97;;;;;;;;;;4910594;29;20106;-75
2023/12/21 08:00:40;;;;;;;15.15;3.20;;;;;;;;;;4926019;29;20106;-72
2023/12/21 08:03:06;;;;;;;22.38;4.25;;;;;;;;;;4915570;29;20126;-72
2023/12/21 08:05:32;;;;;;;21.83;3.47;;;;;;;;;;4915812;29;20031;-72
2023/12/21 08:07:58;;;;;;;28.13;4.47;;;;;;;;;;4923941;29;20058;-72
2023/12/21 08:10:24;;;;;;;25.38;3.90;;;;;;;;;;4935136;29;20052;-74
2023/12/21 08:12:50;;;;;;;18.52;3.53;;;;;;;;;;4911717;29;20048;-75
2023/12/21 08:15:16;;;;;;;25.17;4.65;;;;;;;;;;4934389;29;20039;-72
2023/12/21 08:17:44;;;;;;;27.15;4.28;;;;;;;;;;4928770;29;20051;-75
2023/12/21 08:20:12;;;;;;;20.00;3.72;;;;;;;;;;4929431;29;20053;-73
2023/12/21 08:22:38;;;;;;;22.30;4.00;;;;;;;;;;4929036;29;20074;-73
2023/12/21 08:25:04;;;;;;;25.20;3.70;;;;;;;;;;4923847;29;20044;-73
2023/12/21 08:27:30;;;;;;;18.08;4.25;;;;;;;;;;4930801;29;20400;-73
2023/12/21 08:29:57;;;;;;;28.88;3.88;;;;;;;;;;4924476;29;20035;-72
2023/12/21 08:32:23;;;;;;;25.83;3.65;;;;;;;;;;4921699;29;20044;-72
2023/12/21 08:34:49;;;;;;;17.45;3.92;;;;;;;;;;4904334;29;20044;-72
2023/12/21 08:37:15;;;;;;;26.85;3.95;;;;;;;;;;4920005;29;20047;-72
2023/12/21 08:39:41;;;;;;;23.73;4.15;;;;;;;;;;4922655;29;20128;-73
2023/12/21 08:42:08;;;;;;;23.33;3.55;;;;;;;;;;4935727;29;20493;-73
2023/12/21 08:44:35;;;;;;;17.35;2.85;;;;;;;;;;4920134;29;20127;-73
2023/12/21 08:47:01;;;;;;;30.10;4.28;;;;;;;;;;4935746;29;20074;-73
2023/12/21 08:49:27;;;;;;;24.33;3.80;;;;;;;;;;4920973;29;20110;-74
2023/12/21 08:51:53;;;;;;;26.08;3.75;;;;;;;;;;4928043;29;20396;-73
2023/12/21 08:54:20;;;;;;;25.10;4.07;;;;;;;;;;4904063;29;20051;-78
2023/12/21 08:56:46;;;;;;;20.25;3.22;;;;;;;;;;4919966;29;20404;-79
2023/12/21 08:59:12;;;;;;;27.10;3.42;;;;;;;;;;4904050;29;20075;-74
2023/12/21 09:01:38;;;;;;;23.50;4.25;;;;;;;;;;4941429;29;20048;-80
2023/12/21 09:04:05;;;;;;;29.50;4.30;;;;;;;;;;4938943;29;20043;-79
2023/12/21 09:06:32;;;;;;;21.35;3.72;;;;;;;;;;4938700;28;20620;-79
2023/12/21 09:08:58;;;;;;;17.95;3.65;;;;;;;;;;4918594;29;20031;-80
2023/12/21 09:11:25;;;;;;;21.75;3.40;;;;;;;;;;4926889;29;20189;-80
2023/12/21 09:13:51;;;;;;;22.77;3.53;;;;;;;;;;4923028;29;20051;-79
2023/12/21 09:16:17;;;;;;;20.90;4.07;;;;;;;;;;4923003;29;20079;-79
2023/12/21 09:18:47;;;;;;;24.67;4.40;;;;;;;;;;4938504;29;20039;-79
2023/12/21 09:21:13;;;;;;;19.90;3.00;;;;;;;;;;4938431;28;20043;-80
2023/12/21 09:23:40;;;;;;;22.17;3.92;;;;;;;;;;4922649;29;20496;-79
2023/12/21 09:26:09;;;;;;;22.92;3.90;;;;;;;;;;4930984;29;20043;-79
2023/12/21 09:28:36;;;;;;;20.27;3.65;;;;;;;;;;4930920;29;20036;-79
2023/12/21 09:31:03;;;;;;;19.30;2.90;;;;;;;;;;4908166;29;20071;-79
2023/12/21 09:33:31;;;;;;;23.40;3.05;;;;;;;;;;4919198;29;20122;-79
2023/12/21 09:35:58;;;;;;;26.55;3.92;;;;;;;;;;4919163;29;20075;-79
2023/12/21 09:38:24;;;;;;;26.52;3.95;;;;;;;;;;4922262;29;20098;-79
2023/12/21 09:40:51;;;;;;;20.23;3.15;;;;;;;;;;4919112;29;20122;-79
2023/12/21 09:43:21;;;;;;;21.30;3.88;;;;;;;;;;4919091;29;20047;-78
2023/12/21 09:45:51;;;;;;;21.80;3.40;;;;;;;;;;4919350;29;20315;-79
2023/12/21 09:48:18;;;;;;;28.85;4.22;;;;;;;;;;4918940;29;20044;-78
2023/12/21 09:50:48;;;;;;;17.50;2.65;;;;;;;;;;4919101;29;20083;-79
2023/12/21 09:53:16;;;;;;;21.85;3.58;;;;;;;;;;4922259;29;20073;-78
2023/12/21 09:55:42;;;;;;;16.45;3.20;;;;;;;;;;4918939;29;20075;-79
2023/12/21 09:58:12;;;;;;;18.10;3.42;;;;;;;;;;4918917;29;20040;-78
2023/12/21 10:00:38;;;;;;;20.33;3.28;;;;;;;;;;4918945;29;20150;-78
2023/12/21 10:03:05;;;;;;;20.42;3.35;;;;;;;;;;4918903;29;20503;-78
2023/12/21 10:05:31;;;;;;;21.98;4.40;;;;;;;;;;4929127;29;20043;-77
2023/12/21 10:07:58;;;;;;;18.77;3.10;;;;;;;;;;4918161;29;20044;-78
2023/12/21 10:10:24;;;;;;;20.85;3.25;;;;;;;;;;4918385;29;20519;-78
2023/12/21 10:12:50;;;;;;;16.52;2.80;;;;;;;;;;4918681;29;20055;-78
2023/12/21 10:15:19;;;;;;;19.13;3.72;;;;;;;;;;4918663;29;20043;-78
2023/12/21 10:17:46;;;;;;;17.33;4.68;;;;;;;;;;4918417;29;20044;-78
2023/12/21 10:20:12;;;;;;;19.25;3.97;;;;;;;;;;4918578;29;20051;-78
2023/12/21 10:22:40;;;;;;;20.35;3.88;;;;;;;;;;4918729;29;20122;-79
2023/12/21 10:25:07;;;;;;;22.08;3.83;;;;;;;;;;4918529;29;20127;-79
2023/12/21 10:27:34;;;;;;;17.70;2.90;;;;;;;;;;4918756;29;20047;-78
2023/12/21 10:30:00;;;;;;;21.83;2.78;;;;;;;;;;4918598;29;20035;-72
2023/12/21 10:32:26;;;;;;;18.15;3.30;;;;;;;;;;4918323;29;20148;-73
2023/12/21 10:34:54;;;;;;;22.13;4.32;;;;;;;;;;4918403;29;20055;-72
2023/12/21 10:37:22;;;;;;;19.65;3.95;;;;;;;;;;4918771;29;20044;-78
2023/12/21 10:39:48;;;;;;;15.38;2.95;;;;;;;;;;4920050;29;20043;-78
2023/12/21 10:42:14;;;;;;;21.45;3.53;;;;;;;;;;4925159;29;20039;-79
2023/12/21 10:44:44;;;;;;;20.10;3.40;;;;;;;;;;4922914;29;20048;-79
2023/12/21 10:47:11;;;;;;;19.45;3.28;;;;;;;;;;4927231;29;20058;-78
2023/12/21 10:49:37;;;;;;;19.08;3.58;;;;;;;;;;4921225;29;20055;-80
2023/12/21 10:52:03;;;;;;;16.95;3.25;;;;;;;;;;4921918;29;20043;-79
2023/12/21 10:54:30;;;;;;;18.10;3.25;;;;;;;;;;4927579;29;20134;-73
2023/12/21 10:56:57;;;;;;;25.63;4.50;;;;;;;;;;4918381;29;20169;-73
2023/12/21 10:59:23;;;;;;;28.45;4.53;;;;;;;;;;4918108;29;20543;-73
2023/12/21 11:01:49;;;;;;;21.10;3.33;;;;;;;;;;4921040;29;20134;-73
2023/12/21 11:04:17;;;;;;;21.30;3.70;;;;;;;;;;4935302;29;20140;-73
2023/12/21 11:06:43;;;;;;;26.17;4.57;;;;;;;;;;4930292;29;20039;-73
2023/12/21 11:09:13;;;;;;;23.67;3.88;;;;;;;;;;4927945;29;20134;-74
2023/12/21 11:11:39;;;;;;;24.00;4.28;;;;;;;;;;4927569;28;20063;-73
2023/12/21 11:14:05;;;;;;;22.08;3.80;;;;;;;;;;4928895;29;20047;-74
2023/12/21 11:16:31;;;;;;;22.63;4.68;;;;;;;;;;4918060;29;20059;-74
2023/12/21 11:18:59;;;;;;;28.65;4.90;;;;;;;;;;4911104;28;20047;-74
2023/12/21 11:21:26;;;;;;;23.27;4.05;;;;;;;;;;4940529;29;20083;-74
2023/12/21 11:23:56;;;;;;;25.67;4.22;;;;;;;;;;4933817;29;20472;-74
2023/12/21 11:26:27;;;;;;;18.05;3.83;;;;;;;;;;4921780;29;20523;-74
2023/12/21 11:29:13;;;;;;;22.50;4.60;;;;;;;;;;4930719;29;20082;-74
2023/12/21 11:31:41;;;;;;;22.35;3.65;;;;;;;;;;4922530;29;20044;-74
2023/12/21 11:34:14;;;;;;;24.02;4.40;;;;;;;;;;4925234;29;20066;-74
2023/12/21 11:36:41;;;;;;;24.90;4.28;;;;;;;;;;4917505;29;20050;-74
2023/12/21 11:39:12;;;;;;;30.30;4.35;;;;;;;;;;4924280;29;20059;-74
2023/12/21 11:42:08;;;;;;;22.65;4.38;;;;;;;;;;4937078;29;20050;-75
2023/12/21 11:44:37;;;;;;;30.15;4.10;;;;;;;;;;4916375;29;20086;-74
2023/12/21 11:47:07;;;;;;;27.33;4.95;;;;;;;;;;4933795;29;20377;-74
2023/12/21 11:49:33;;;;;;;20.88;3.92;;;;;;;;;;4938279;29;20035;-74
2023/12/21 11:51:59;;;;;;;21.08;3.72;;;;;;;;;;4938184;29;20040;-74
2023/12/21 11:54:26;;;;;;;18.60;4.30;;;;;;;;;;4912013;29;20058;-74
2023/12/21 11:57:09;;;;;;;21.77;3.83;;;;;;;;;;4903349;29;20131;-73
2023/12/21 11:59:36;;;;;;;22.35;4.05;;;;;;;;;;4923091;29;20047;-74
2023/12/21 12:02:06;;;;;;;18.00;4.75;;;;;;;;;;4908095;29;20153;-74
2023/12/21 12:04:32;;;;;;;26.08;5.00;;;;;;;;;;4937508;29;20079;-75
2023/12/21 12:06:58;;;;;;;23.27;3.70;;;;;;;;;;4897910;29;20464;-74
2023/12/21 12:09:24;;;;;;;24.33;4.47;;;;;;;;;;4923252;29;20040;-74
2023/12/21 12:11:51;;;;;;;19.42;3.17;;;;;;;;;;4904960;29;20396;-73
2023/12/21 12:14:18;;;;;;;25.83;4.10;;;;;;;;;;4915070;29;20043;-74
2023/12/21 12:16:44;;;;;;;24.75;4.28;;;;;;;;;;4929657;29;20131;-74
2023/12/21 12:19:12;;;;;;;24.38;3.45;;;;;;;;;;4924009;29;20039;-74
2023/12/21 12:21:38;;;;;;;20.65;3.92;;;;;;;;;;4922820;29;20049;-75
2023/12/21 12:24:05;;;;;;;22.70;3.30;;;;;;;;;;4935815;29;20042;-75
2023/12/21 12:26:31;;;;;;;19.65;3.97;;;;;;;;;;4920171;29;20083;-75
2023/12/21 12:28:57;;;;;;;20.50;3.63;;;;;;;;;;4920266;29;20468;-74
2023/12/21 12:31:23;;;;;;;23.17;4.65;;;;;;;;;;4936419;29;20071;-75
2023/12/21 12:33:50;;;;;;;25.02;3.40;;;;;;;;;;4902667;29;20044;-73
2023/12/21 12:36:19;;;;;;;27.08;4.72;;;;;;;;;;4909887;29;20131;-74
2023/12/21 12:38:45;;;;;;;28.42;4.85;;;;;;;;;;4925963;29;20106;-74
2023/12/21 12:41:21;;;;;;;28.10;4.70;;;;;;;;;;4933575;29;20047;-74
2023/12/21 12:43:47;;;;;;;26.63;4.55;;;;;;;;;;4930455;29;20513;-74
2023/12/21 12:46:17;;;;;;;24.10;3.88;;;;;;;;;;4917044;29;20039;-74
2023/12/21 12:48:43;;;;;;;25.65;4.60;;;;;;;;;;4923470;29;20461;-74
2023/12/21 12:51:12;;;;;;;31.25;5.03;;;;;;;;;;4915713;29;20450;-75
2023/12/21 12:53:45;;;;;;;29.42;5.07;;;;;;;;;;4926181;29;20043;-74
2023/12/21 12:56:11;;;;;;;20.45;4.20;;;;;;;;;;4921622;29;20040;-74
2023/12/21 12:58:40;;;;;;;28.30;4.25;;;;;;;;;;4920139;29;20429;-75
2023/12/21 13:01:07;;;;;;;29.98;5.63;;;;;;;;;;4913246;29;20041;-75
2023/12/21 13:03:33;;;;;;;24.85;4.25;;;;;;;;;;4926830;29;20090;-74
2023/12/21 13:05:59;;;;;;;22.65;4.13;;;;;;;;;;4910316;28;20035;-74
2023/12/21 13:08:27;;;;;;;24.40;5.10;;;;;;;;;;4938659;28;20039;-74
2023/12/21 13:10:54;;;;;;;26.63;4.40;;;;;;;;;;4934851;29;20067;-74
2023/12/21 13:13:20;;;;;;;27.60;4.40;;;;;;;;;;4919733;29;20054;-74
2023/12/21 13:15:46;;;;;;;29.40;5.35;;;;;;;;;;4923212;29;20040;-74
2023/12/21 13:18:12;;;;;;;31.08;5.38;;;;;;;;;;4911564;29;20043;-74
2023/12/21 13:20:39;;;;;;;30.75;5.25;;;;;;;;;;4916556;29;20052;-73
2023/12/21 13:23:05;;;;;;;31.48;4.82;;;;;;;;;;4917132;29;20056;-74
2023/12/21 13:25:31;;;;;;;27.10;5.15;;;;;;;;;;4914509;29;20517;-73
2023/12/21 13:27:57;;;;;;;26.45;5.00;;;;;;;;;;4916795;29;20083;-74
2023/12/21 13:30:23;;;;;;;27.38;4.95;;;;;;;;;;4931896;29;20044;-73
2023/12/21 13:32:50;;;;;;;31.70;4.97;;;;;;;;;;4903865;29;20130;-74
2023/12/21 13:35:20;;;;;;;28.73;5.47;;;;;;;;;;4919942;29;20173;-81
2023/12/21 13:37:46;;;;;;;27.83;4.43;;;;;;;;;;4910556;29;20047;-80
2023/12/21 13:40:12;;;;;;;29.33;6.28;;;;;;;;;;4924854;29;20043;-80
2023/12/21 13:42:39;;;;;;;31.90;6.63;;;;;;;;;;4921114;29;20544;-80
2023/12/21 13:45:05;;;;;;;25.70;4.40;;;;;;;;;;4908766;29;20043;-80
2023/12/21 13:47:34;;;;;;;30.38;4.55;;;;;;;;;;4932417;29;20054;-80
2023/12/21 13:50:00;;;;;;;30.83;5.00;;;;;;;;;;4921451;29;20352;-80
2023/12/21 13:52:26;;;;;;;16.08;3.50;;;;;;;;;;4919521;29;20043;-80
2023/12/21 13:54:52;;;;;;;13.65;2.40;;;;;;;;;;4936155;29;20075;-81
2023/12/21 13:57:19;;;;;;;14.70;2.60;;;;;;;;;;4925915;29;20083;-82
2023/12/21 13:59:45;;;;;;;15.70;3.13;;;;;;;;;;4938265;29;20047;-82
2023/12/21 14:02:11;;;;;;;14.85;2.35;;;;;;;;;;4935088;29;20051;-81
2023/12/21 14:04:38;;;;;;;13.38;2.20;;;;;;;;;;4935298;29;20040;-81
2023/12/21 14:07:04;;;;;;;9.20;2.63;;;;;;;;;;4934776;29;20054;-81
2023/12/21 14:09:30;;;;;;;16.98;2.60;;;;;;;;;;4934845;29;20047;-81
2023/12/21 14:11:56;;;;;;;19.73;3.33;;;;;;;;;;4934604;29;20100;-74
2023/12/21 14:14:22;;;;;;;23.35;3.63;;;;;;;;;;4918547;29;20106;-74
2023/12/21 14:16:48;;;;;;;22.30;3.42;;;;;;;;;;4934374;29;20496;-74
2023/12/21 14:19:14;;;;;;;29.45;3.30;;;;;;;;;;4934228;29;20043;-74
2023/12/21 14:21:40;;;;;;;21.05;3.67;;;;;;;;;;4934176;29;20040;-74
2023/12/21 14:24:12;;;;;;;24.15;4.05;;;;;;;;;;4934399;29;20051;-75
2023/12/21 14:26:38;;;;;;;22.55;3.17;;;;;;;;;;4918416;29;20473;-75
2023/12/21 14:29:05;;;;;;;20.15;4.35;;;;;;;;;;4918526;29;20075;-74